sensor_id;sensor_type;location;lat;lon;timestamp;pressure;altitude;pressure_sealevel;temperature;humidity
80699;BME280;70062;51.658;5.658;2023-07-02T00:02:01;100571.40;;;18.18;67.98
80699;BME280;70062;51.658;5.658;2023-07-02T00:04:35;100568.08;;;18.16;67.82
80699;BME280;70062;51.658;5.658;2023-07-02T00:07:01;100563.88;;;18.14;68.02
80699;BME280;70062;51.658;5.658;2023-07-02T00:09:26;100559.02;;;18.13;68.00
80699;BME280;70062;51.658;5.658;2023-07-02T00:11:51;100558.32;;;18.13;67.91
80699;BME280;70062;51.658;5.658;2023-07-02T00:14:17;100556.03;;;18.12;67.90
80699;BME280;70062;51.658;5.658;2023-07-02T00:16:46;100557.95;;;18.11;67.96
80699;BME280;70062;51.658;5.658;2023-07-02T00:19:13;100553.40;;;18.09;67.97
80699;BME280;70062;51.658;5.658;2023-07-02T00:21:39;100540.87;;;18.07;67.94
80699;BME280;70062;51.658;5.658;2023-07-02T00:24:06;100527.48;;;18.07;67.86
80699;BME280;70062;51.658;5.658;2023-07-02T00:26:31;100529.02;;;18.04;68.03
80699;BME280;70062;51.658;5.658;2023-07-02T00:28:57;100525.28;;;17.98;68.12
80699;BME280;70062;51.658;5.658;2023-07-02T00:31:26;100531.28;;;17.92;68.15
80699;BME280;70062;51.658;5.658;2023-07-02T00:33:52;100537.65;;;17.89;68.41
80699;BME280;70062;51.658;5.658;2023-07-02T00:36:17;100547.83;;;17.84;68.49
80699;BME280;70062;51.658;5.658;2023-07-02T00:38:48;100551.95;;;17.81;68.52
80699;BME280;70062;51.658;5.658;2023-07-02T00:41:16;100561.62;;;17.77;68.64
80699;BME280;70062;51.658;5.658;2023-07-02T00:43:42;100561.25;;;17.76;68.68
80699;BME280;70062;51.658;5.658;2023-07-02T00:46:16;100562.48;;;17.77;68.64
80699;BME280;70062;51.658;5.658;2023-07-02T00:48:51;100566.15;;;17.78;68.37
80699;BME280;70062;51.658;5.658;2023-07-02T00:51:19;100567.35;;;17.77;68.53
80699;BME280;70062;51.658;5.658;2023-07-02T00:53:45;100571.89;;;17.79;68.35
80699;BME280;70062;51.658;5.658;2023-07-02T00:56:11;100571.41;;;17.82;68.50
80699;BME280;70062;51.658;5.658;2023-07-02T00:58:42;100575.27;;;17.84;68.33
80699;BME280;70062;51.658;5.658;2023-07-02T01:01:22;100576.45;;;17.83;68.38
80699;BME280;70062;51.658;5.658;2023-07-02T01:04:03;100576.46;;;17.83;68.49
80699;BME280;70062;51.658;5.658;2023-07-02T01:06:32;100575.74;;;17.81;68.40
80699;BME280;70062;51.658;5.658;2023-07-02T01:09:03;100578.84;;;17.79;68.38
80699;BME280;70062;51.658;5.658;2023-07-02T01:11:32;100579.67;;;17.77;68.41
80699;BME280;70062;51.658;5.658;2023-07-02T01:14:04;100583.45;;;17.75;68.42
80699;BME280;70062;51.658;5.658;2023-07-02T01:16:31;100585.84;;;17.72;68.49
80699;BME280;70062;51.658;5.658;2023-07-02T01:18:58;100583.70;;;17.69;68.59
80699;BME280;70062;51.658;5.658;2023-07-02T01:21:30;100584.16;;;17.66;68.59
80699;BME280;70062;51.658;5.658;2023-07-02T01:23:55;100585.36;;;17.66;68.74
80699;BME280;70062;51.658;5.658;2023-07-02T01:26:21;100583.27;;;17.65;68.65
80699;BME280;70062;51.658;5.658;2023-07-02T01:28:46;100587.25;;;17.64;68.79
80699;BME280;70062;51.658;5.658;2023-07-02T01:31:12;100591.55;;;17.62;68.77
80699;BME280;70062;51.658;5.658;2023-07-02T01:33:37;100592.40;;;17.61;68.78
80699;BME280;70062;51.658;5.658;2023-07-02T01:36:03;100597.23;;;17.59;68.93
80699;BME280;70062;51.658;5.658;2023-07-02T01:38:29;100597.91;;;17.58;69.02
80699;BME280;70062;51.658;5.658;2023-07-02T01:40:54;100601.01;;;17.56;69.10
80699;BME280;70062;51.658;5.658;2023-07-02T01:43:19;100601.27;;;17.52;69.14
80699;BME280;70062;51.658;5.658;2023-07-02T01:45:45;100603.24;;;17.46;69.19
80699;BME280;70062;51.658;5.658;2023-07-02T01:48:10;100605.93;;;17.40;69.27
80699;BME280;70062;51.658;5.658;2023-07-02T01:50:36;100607.03;;;17.34;69.50
80699;BME280;70062;51.658;5.658;2023-07-02T01:53:01;100611.96;;;17.29;69.58
80699;BME280;70062;51.658;5.658;2023-07-02T01:55:26;100613.27;;;17.25;69.90
80699;BME280;70062;51.658;5.658;2023-07-02T01:57:52;100613.55;;;17.21;69.99
80699;BME280;70062;51.658;5.658;2023-07-02T02:00:17;100606.88;;;17.17;70.14
80699;BME280;70062;51.658;5.658;2023-07-02T02:02:43;100605.91;;;17.12;70.40
80699;BME280;70062;51.658;5.658;2023-07-02T02:05:11;100608.23;;;17.06;70.57
80699;BME280;70062;51.658;5.658;2023-07-02T02:07:37;100609.55;;;17.03;70.58
80699;BME280;70062;51.658;5.658;2023-07-02T02:10:03;100608.91;;;16.96;70.79
80699;BME280;70062;51.658;5.658;2023-07-02T02:12:29;100608.80;;;16.90;71.02
80699;BME280;70062;51.658;5.658;2023-07-02T02:14:55;100607.30;;;16.84;71.24
80699;BME280;70062;51.658;5.658;2023-07-02T02:17:23;100615.89;;;16.80;71.49
80699;BME280;70062;51.658;5.658;2023-07-02T02:19:51;100612.38;;;16.78;71.56
80699;BME280;70062;51.658;5.658;2023-07-02T02:22:17;100616.17;;;16.77;71.73
80699;BME280;70062;51.658;5.658;2023-07-02T02:24:45;100617.38;;;16.77;71.74
80699;BME280;70062;51.658;5.658;2023-07-02T02:27:10;100614.42;;;16.76;71.92
80699;BME280;70062;51.658;5.658;2023-07-02T02:29:36;100613.20;;;16.76;71.91
80699;BME280;70062;51.658;5.658;2023-07-02T02:32:01;100614.58;;;16.75;72.02
80699;BME280;70062;51.658;5.658;2023-07-02T02:34:26;100613.69;;;16.75;72.09
80699;BME280;70062;51.658;5.658;2023-07-02T02:36:54;100617.48;;;16.74;72.15
80699;BME280;70062;51.658;5.658;2023-07-02T02:39:21;100619.50;;;16.71;72.02
80699;BME280;70062;51.658;5.658;2023-07-02T02:41:46;100627.53;;;16.65;72.24
80699;BME280;70062;51.658;5.658;2023-07-02T02:44:12;100630.19;;;16.60;72.32
80699;BME280;70062;51.658;5.658;2023-07-02T02:46:37;100634.10;;;16.57;72.35
80699;BME280;70062;51.658;5.658;2023-07-02T02:49:03;100636.30;;;16.55;72.43
80699;BME280;70062;51.658;5.658;2023-07-02T02:51:28;100635.25;;;16.54;72.37
80699;BME280;70062;51.658;5.658;2023-07-02T02:53:53;100641.15;;;16.55;72.38
80699;BME280;70062;51.658;5.658;2023-07-02T02:56:19;100639.06;;;16.55;72.29
80699;BME280;70062;51.658;5.658;2023-07-02T02:58:44;100634.24;;;16.56;72.09
80699;BME280;70062;51.658;5.658;2023-07-02T03:01:09;100633.23;;;16.57;71.87
80699;BME280;70062;51.658;5.658;2023-07-02T03:03:42;100634.98;;;16.58;71.48
80699;BME280;70062;51.658;5.658;2023-07-02T03:06:12;100641.73;;;16.58;71.14
80699;BME280;70062;51.658;5.658;2023-07-02T03:08:39;100642.77;;;16.58;70.78
80699;BME280;70062;51.658;5.658;2023-07-02T03:11:04;100644.66;;;16.57;70.36
80699;BME280;70062;51.658;5.658;2023-07-02T03:13:29;100651.20;;;16.55;70.16
80699;BME280;70062;51.658;5.658;2023-07-02T03:15:55;100661.27;;;16.56;70.05
80699;BME280;70062;51.658;5.658;2023-07-02T03:18:20;100663.15;;;16.54;69.79
80699;BME280;70062;51.658;5.658;2023-07-02T03:20:47;100665.26;;;16.56;69.62
80699;BME280;70062;51.658;5.658;2023-07-02T03:23:12;100661.65;;;16.57;69.53
80699;BME280;70062;51.658;5.658;2023-07-02T03:25:38;100665.68;;;16.60;69.31
80699;BME280;70062;51.658;5.658;2023-07-02T03:28:03;100666.77;;;16.62;69.03
80699;BME280;70062;51.658;5.658;2023-07-02T03:30:28;100670.25;;;16.62;68.88
80699;BME280;70062;51.658;5.658;2023-07-02T03:32:54;100668.83;;;16.61;68.60
80699;BME280;70062;51.658;5.658;2023-07-02T03:35:19;100675.22;;;16.60;68.46
80699;BME280;70062;51.658;5.658;2023-07-02T03:37:45;100675.46;;;16.55;68.21
80699;BME280;70062;51.658;5.658;2023-07-02T03:40:11;100675.90;;;16.51;68.33
80699;BME280;70062;51.658;5.658;2023-07-02T03:42:36;100684.31;;;16.48;68.41
80699;BME280;70062;51.658;5.658;2023-07-02T03:45:02;100683.86;;;16.43;68.28
80699;BME280;70062;51.658;5.658;2023-07-02T03:47:28;100687.73;;;16.38;68.37
80699;BME280;70062;51.658;5.658;2023-07-02T03:49:54;100684.35;;;16.34;68.39
80699;BME280;70062;51.658;5.658;2023-07-02T03:52:19;100685.39;;;16.34;68.40
80699;BME280;70062;51.658;5.658;2023-07-02T03:54:44;100691.85;;;16.36;68.44
80699;BME280;70062;51.658;5.658;2023-07-02T03:57:10;100693.41;;;16.37;68.47
80699;BME280;70062;51.658;5.658;2023-07-02T03:59:35;100696.07;;;16.39;68.40
80699;BME280;70062;51.658;5.658;2023-07-02T04:02:01;100698.84;;;16.39;68.30
80699;BME280;70062;51.658;5.658;2023-07-02T04:04:26;100699.52;;;16.39;68.19
80699;BME280;70062;51.658;5.658;2023-07-02T04:06:52;100705.05;;;16.38;68.13
80699;BME280;70062;51.658;5.658;2023-07-02T04:09:17;100701.77;;;16.39;68.13
80699;BME280;70062;51.658;5.658;2023-07-02T04:11:45;100702.86;;;16.41;67.95
80699;BME280;70062;51.658;5.658;2023-07-02T04:14:11;100703.60;;;16.43;67.89
80699;BME280;70062;51.658;5.658;2023-07-02T04:16:36;100699.73;;;16.41;67.46
80699;BME280;70062;51.658;5.658;2023-07-02T04:19:02;100702.86;;;16.41;67.38
80699;BME280;70062;51.658;5.658;2023-07-02T04:21:27;100706.60;;;16.38;67.23
80699;BME280;70062;51.658;5.658;2023-07-02T04:23:52;100706.38;;;16.35;66.81
80699;BME280;70062;51.658;5.658;2023-07-02T04:26:18;100705.13;;;16.33;66.83
80699;BME280;70062;51.658;5.658;2023-07-02T04:28:43;100706.30;;;16.32;66.72
80699;BME280;70062;51.658;5.658;2023-07-02T04:31:09;100708.20;;;16.31;66.60
80699;BME280;70062;51.658;5.658;2023-07-02T04:33:34;100711.65;;;16.31;66.57
80699;BME280;70062;51.658;5.658;2023-07-02T04:36:04;100718.80;;;16.33;66.49
80699;BME280;70062;51.658;5.658;2023-07-02T04:38:30;100721.66;;;16.37;66.41
80699;BME280;70062;51.658;5.658;2023-07-02T04:40:55;100724.90;;;16.42;66.36
80699;BME280;70062;51.658;5.658;2023-07-02T04:43:26;100724.26;;;16.44;66.26
80699;BME280;70062;51.658;5.658;2023-07-02T04:45:54;100723.98;;;16.47;66.11
80699;BME280;70062;51.658;5.658;2023-07-02T04:48:20;100723.10;;;16.54;66.20
80699;BME280;70062;51.658;5.658;2023-07-02T04:50:45;100725.29;;;16.59;65.70
80699;BME280;70062;51.658;5.658;2023-07-02T04:53:10;100728.70;;;16.64;65.49
80699;BME280;70062;51.658;5.658;2023-07-02T04:55:36;100728.13;;;16.68;64.98
80699;BME280;70062;51.658;5.658;2023-07-02T04:58:01;100726.55;;;16.76;64.69
80699;BME280;70062;51.658;5.658;2023-07-02T05:00:26;100728.84;;;16.85;64.53
80699;BME280;70062;51.658;5.658;2023-07-02T05:02:52;100728.46;;;16.91;64.50
80699;BME280;70062;51.658;5.658;2023-07-02T05:05:17;100725.21;;;17.02;64.23
80699;BME280;70062;51.658;5.658;2023-07-02T05:07:43;100731.48;;;17.12;63.69
80699;BME280;70062;51.658;5.658;2023-07-02T05:10:09;100731.77;;;17.18;63.24
80699;BME280;70062;51.658;5.658;2023-07-02T05:12:34;100733.46;;;17.24;63.13
80699;BME280;70062;51.658;5.658;2023-07-02T05:15:00;100738.74;;;17.27;62.80
80699;BME280;70062;51.658;5.658;2023-07-02T05:17:25;100740.74;;;17.32;62.40
80699;BME280;70062;51.658;5.658;2023-07-02T05:19:52;100736.92;;;17.39;62.42
80699;BME280;70062;51.658;5.658;2023-07-02T05:22:18;100744.05;;;17.49;62.16
80699;BME280;70062;51.658;5.658;2023-07-02T05:24:43;100742.30;;;17.57;61.97
80699;BME280;70062;51.658;5.658;2023-07-02T05:27:09;100742.50;;;17.67;61.88
80699;BME280;70062;51.658;5.658;2023-07-02T05:29:34;100748.59;;;17.77;61.23
80699;BME280;70062;51.658;5.658;2023-07-02T05:32:00;100752.73;;;17.84;60.46
80699;BME280;70062;51.658;5.658;2023-07-02T05:34:25;100753.16;;;17.89;59.95
80699;BME280;70062;51.658;5.658;2023-07-02T05:36:50;100752.61;;;17.98;59.59
80699;BME280;70062;51.658;5.658;2023-07-02T05:39:16;100758.83;;;18.06;58.94
80699;BME280;70062;51.658;5.658;2023-07-02T05:41:41;100762.60;;;18.13;58.55
80699;BME280;70062;51.658;5.658;2023-07-02T05:44:07;100762.21;;;18.20;58.13
80699;BME280;70062;51.658;5.658;2023-07-02T05:46:32;100765.22;;;18.24;58.05
80699;BME280;70062;51.658;5.658;2023-07-02T05:49:00;100769.14;;;18.30;57.87
80699;BME280;70062;51.658;5.658;2023-07-02T05:51:26;100768.38;;;18.37;57.50
80699;BME280;70062;51.658;5.658;2023-07-02T05:53:53;100768.45;;;18.41;56.88
80699;BME280;70062;51.658;5.658;2023-07-02T05:56:21;100766.79;;;18.47;56.48
80699;BME280;70062;51.658;5.658;2023-07-02T05:58:48;100773.01;;;18.54;56.13
80699;BME280;70062;51.658;5.658;2023-07-02T06:01:14;100776.27;;;18.62;55.97
80699;BME280;70062;51.658;5.658;2023-07-02T06:03:39;100778.79;;;18.67;55.79
80699;BME280;70062;51.658;5.658;2023-07-02T06:06:05;100779.77;;;18.74;55.25
80699;BME280;70062;51.658;5.658;2023-07-02T06:08:35;100783.66;;;18.79;55.21
80699;BME280;70062;51.658;5.658;2023-07-02T06:11:01;100787.77;;;18.87;54.53
80699;BME280;70062;51.658;5.658;2023-07-02T06:13:28;100790.98;;;18.92;54.48
80699;BME280;70062;51.658;5.658;2023-07-02T06:15:54;100795.07;;;18.98;54.51
80699;BME280;70062;51.658;5.658;2023-07-02T06:18:19;100794.73;;;19.09;54.42
80699;BME280;70062;51.658;5.658;2023-07-02T06:20:46;100795.58;;;19.21;54.20
80699;BME280;70062;51.658;5.658;2023-07-02T06:23:11;100798.70;;;19.34;53.68
80699;BME280;70062;51.658;5.658;2023-07-02T06:25:36;100803.27;;;19.51;53.42
80699;BME280;70062;51.658;5.658;2023-07-02T06:28:02;100799.77;;;19.61;52.25
80699;BME280;70062;51.658;5.658;2023-07-02T06:30:30;100796.88;;;19.68;52.04
80699;BME280;70062;51.658;5.658;2023-07-02T06:32:56;100803.13;;;19.67;51.73
80699;BME280;70062;51.658;5.658;2023-07-02T06:35:21;100804.73;;;19.70;52.03
80699;BME280;70062;51.658;5.658;2023-07-02T06:37:47;100810.20;;;19.76;52.21
80699;BME280;70062;51.658;5.658;2023-07-02T06:40:12;100809.61;;;19.86;51.65
80699;BME280;70062;51.658;5.658;2023-07-02T06:42:38;100804.98;;;19.93;50.82
80699;BME280;70062;51.658;5.658;2023-07-02T06:45:04;100809.04;;;19.99;50.11
80699;BME280;70062;51.658;5.658;2023-07-02T06:47:30;100809.74;;;20.00;49.68
80699;BME280;70062;51.658;5.658;2023-07-02T06:49:55;100808.20;;;20.02;49.40
80699;BME280;70062;51.658;5.658;2023-07-02T06:52:21;100814.33;;;20.05;49.42
80699;BME280;70062;51.658;5.658;2023-07-02T06:54:46;100816.45;;;20.08;48.08
80699;BME280;70062;51.658;5.658;2023-07-02T06:57:14;100819.20;;;20.03;47.53
80699;BME280;70062;51.658;5.658;2023-07-02T06:59:40;100822.14;;;20.02;47.21
80699;BME280;70062;51.658;5.658;2023-07-02T07:02:06;100825.49;;;20.06;48.12
80699;BME280;70062;51.658;5.658;2023-07-02T07:04:31;100832.08;;;20.20;47.63
80699;BME280;70062;51.658;5.658;2023-07-02T07:06:57;100837.59;;;20.32;47.77
80699;BME280;70062;51.658;5.658;2023-07-02T07:09:22;100840.88;;;20.44;47.83
80699;BME280;70062;51.658;5.658;2023-07-02T07:11:48;100849.12;;;20.51;47.30
80699;BME280;70062;51.658;5.658;2023-07-02T07:14:13;100850.70;;;20.52;47.44
80699;BME280;70062;51.658;5.658;2023-07-02T07:16:39;100851.81;;;20.60;47.60
80699;BME280;70062;51.658;5.658;2023-07-02T07:19:07;100850.48;;;20.69;47.23
80699;BME280;70062;51.658;5.658;2023-07-02T07:21:35;100851.27;;;20.79;47.41
80699;BME280;70062;51.658;5.658;2023-07-02T07:24:00;100857.29;;;20.88;47.14
80699;BME280;70062;51.658;5.658;2023-07-02T07:26:26;100856.60;;;20.88;46.34
80699;BME280;70062;51.658;5.658;2023-07-02T07:28:51;100858.67;;;20.86;46.83
80699;BME280;70062;51.658;5.658;2023-07-02T07:31:19;100862.58;;;20.96;47.42
80699;BME280;70062;51.658;5.658;2023-07-02T07:33:45;100864.77;;;21.13;47.15
80699;BME280;70062;51.658;5.658;2023-07-02T07:36:13;100865.35;;;21.20;46.79
80699;BME280;70062;51.658;5.658;2023-07-02T07:38:39;100875.20;;;21.27;46.39
80699;BME280;70062;51.658;5.658;2023-07-02T07:41:04;100876.00;;;21.19;45.83
80699;BME280;70062;51.658;5.658;2023-07-02T07:43:30;100874.20;;;21.11;46.17
80699;BME280;70062;51.658;5.658;2023-07-02T07:45:55;100874.71;;;21.09;46.43
80699;BME280;70062;51.658;5.658;2023-07-02T07:48:20;100880.70;;;21.17;46.06
80699;BME280;70062;51.658;5.658;2023-07-02T07:50:46;100878.51;;;21.26;45.93
80699;BME280;70062;51.658;5.658;2023-07-02T07:53:14;100879.29;;;21.40;46.15
80699;BME280;70062;51.658;5.658;2023-07-02T07:55:39;100878.64;;;21.51;45.46
80699;BME280;70062;51.658;5.658;2023-07-02T07:58:08;100885.70;;;21.65;45.73
80699;BME280;70062;51.658;5.658;2023-07-02T08:00:41;100884.53;;;21.81;44.36
80699;BME280;70062;51.658;5.658;2023-07-02T08:03:09;100880.90;;;21.93;44.64
80699;BME280;70062;51.658;5.658;2023-07-02T08:05:38;100874.88;;;22.17;44.43
80699;BME280;70062;51.658;5.658;2023-07-02T08:08:03;100876.31;;;22.41;43.78
80699;BME280;70062;51.658;5.658;2023-07-02T08:10:32;100872.52;;;22.59;42.00
80699;BME280;70062;51.658;5.658;2023-07-02T08:12:57;100879.52;;;22.66;41.14
80699;BME280;70062;51.658;5.658;2023-07-02T08:15:22;100883.02;;;22.64;40.98
80699;BME280;70062;51.658;5.658;2023-07-02T08:17:50;100887.73;;;22.61;41.04
80699;BME280;70062;51.658;5.658;2023-07-02T08:20:19;100895.44;;;22.69;40.77
80699;BME280;70062;51.658;5.658;2023-07-02T08:22:44;100892.46;;;22.69;40.66
80699;BME280;70062;51.658;5.658;2023-07-02T08:25:10;100898.77;;;22.67;40.67
80699;BME280;70062;51.658;5.658;2023-07-02T08:27:35;100896.12;;;22.58;40.67
80699;BME280;70062;51.658;5.658;2023-07-02T08:30:00;100897.50;;;22.54;40.77
80699;BME280;70062;51.658;5.658;2023-07-02T08:32:26;100894.00;;;22.54;40.58
80699;BME280;70062;51.658;5.658;2023-07-02T08:34:51;100896.09;;;22.49;41.31
80699;BME280;70062;51.658;5.658;2023-07-02T08:37:22;100899.27;;;22.55;41.64
80699;BME280;70062;51.658;5.658;2023-07-02T08:39:48;100905.59;;;22.70;41.40
80699;BME280;70062;51.658;5.658;2023-07-02T08:42:14;100906.83;;;22.83;41.19
80699;BME280;70062;51.658;5.658;2023-07-02T08:44:41;100911.55;;;23.02;41.06
80699;BME280;70062;51.658;5.658;2023-07-02T08:47:07;100914.17;;;23.09;39.77
80699;BME280;70062;51.658;5.658;2023-07-02T08:49:39;100909.63;;;23.11;39.88
80699;BME280;70062;51.658;5.658;2023-07-02T08:52:05;100914.16;;;23.17;39.34
80699;BME280;70062;51.658;5.658;2023-07-02T08:54:31;100919.60;;;23.08;38.61
80699;BME280;70062;51.658;5.658;2023-07-02T08:56:56;100921.19;;;22.90;38.75
80699;BME280;70062;51.658;5.658;2023-07-02T08:59:22;100921.85;;;22.65;39.00
80699;BME280;70062;51.658;5.658;2023-07-02T09:01:51;100925.29;;;22.40;39.65
80699;BME280;70062;51.658;5.658;2023-07-02T09:04:23;100926.81;;;22.17;40.19
80699;BME280;70062;51.658;5.658;2023-07-02T09:07:07;100937.70;;;21.92;40.53
80699;BME280;70062;51.658;5.658;2023-07-02T09:09:43;100937.06;;;21.65;40.58
80699;BME280;70062;51.658;5.658;2023-07-02T09:12:09;100933.81;;;21.47;41.59
80699;BME280;70062;51.658;5.658;2023-07-02T09:14:35;100933.23;;;21.67;41.44
80699;BME280;70062;51.658;5.658;2023-07-02T09:17:09;100931.91;;;21.85;40.44
80699;BME280;70062;51.658;5.658;2023-07-02T09:19:35;100934.77;;;22.00;40.58
80699;BME280;70062;51.658;5.658;2023-07-02T09:22:01;100933.31;;;22.30;40.19
80699;BME280;70062;51.658;5.658;2023-07-02T09:24:29;100929.16;;;22.51;39.44
80699;BME280;70062;51.658;5.658;2023-07-02T09:26:56;100935.54;;;22.86;38.80
80699;BME280;70062;51.658;5.658;2023-07-02T09:29:24;100932.56;;;23.01;38.47
80699;BME280;70062;51.658;5.658;2023-07-02T09:31:50;100928.54;;;22.98;38.49
80699;BME280;70062;51.658;5.658;2023-07-02T09:34:16;100925.73;;;22.82;38.78
80699;BME280;70062;51.658;5.658;2023-07-02T09:36:42;100926.77;;;22.73;38.99
80699;BME280;70062;51.658;5.658;2023-07-02T09:39:13;100925.73;;;22.82;38.36
80699;BME280;70062;51.658;5.658;2023-07-02T09:41:42;100922.23;;;23.00;38.44
80699;BME280;70062;51.658;5.658;2023-07-02T09:44:09;100916.77;;;23.26;37.93
80699;BME280;70062;51.658;5.658;2023-07-02T09:46:37;100912.53;;;23.43;37.32
80699;BME280;70062;51.658;5.658;2023-07-02T09:49:13;100917.23;;;23.59;37.26
80699;BME280;70062;51.658;5.658;2023-07-02T09:51:41;100915.02;;;23.88;36.74
80699;BME280;70062;51.658;5.658;2023-07-02T09:54:10;100913.54;;;24.06;37.09
80699;BME280;70062;51.658;5.658;2023-07-02T09:56:35;100915.14;;;24.02;35.97
80699;BME280;70062;51.658;5.658;2023-07-02T09:59:03;100913.48;;;23.82;35.92
80699;BME280;70062;51.658;5.658;2023-07-02T10:01:29;100918.95;;;23.73;35.95
80699;BME280;70062;51.658;5.658;2023-07-02T10:03:54;100921.23;;;23.69;35.99
80699;BME280;70062;51.658;5.658;2023-07-02T10:06:20;100926.70;;;23.55;36.25
80699;BME280;70062;51.658;5.658;2023-07-02T10:08:55;100936.55;;;23.35;36.21
80699;BME280;70062;51.658;5.658;2023-07-02T10:11:20;100945.34;;;22.92;36.80
80699;BME280;70062;51.658;5.658;2023-07-02T10:13:46;100941.96;;;22.59;37.59
80699;BME280;70062;51.658;5.658;2023-07-02T10:16:22;100947.02;;;22.54;37.90
80699;BME280;70062;51.658;5.658;2023-07-02T10:18:47;100953.52;;;22.62;37.91
80699;BME280;70062;51.658;5.658;2023-07-02T10:21:14;100954.41;;;22.68;38.07
80699;BME280;70062;51.658;5.658;2023-07-02T10:23:40;100945.66;;;22.72;38.50
80699;BME280;70062;51.658;5.658;2023-07-02T10:28:41;100951.10;;;23.32;36.80
80699;BME280;70062;51.658;5.658;2023-07-02T10:31:20;100943.70;;;23.57;36.09
80699;BME280;70062;51.658;5.658;2023-07-02T10:33:46;100946.41;;;23.89;35.06
80699;BME280;70062;51.658;5.658;2023-07-02T10:36:27;100949.98;;;24.11;35.05
80699;BME280;70062;51.658;5.658;2023-07-02T10:38:52;100952.90;;;24.33;35.12
80699;BME280;70062;51.658;5.658;2023-07-02T10:41:30;100949.31;;;24.48;34.41
80699;BME280;70062;51.658;5.658;2023-07-02T10:44:08;100950.04;;;24.46;34.03
80699;BME280;70062;51.658;5.658;2023-07-02T10:46:43;100958.88;;;24.32;33.41
80699;BME280;70062;51.658;5.658;2023-07-02T10:49:08;100956.77;;;24.28;33.69
80699;BME280;70062;51.658;5.658;2023-07-02T10:51:37;100959.32;;;24.48;33.58
80699;BME280;70062;51.658;5.658;2023-07-02T10:54:03;100962.89;;;24.64;33.59
80699;BME280;70062;51.658;5.658;2023-07-02T10:56:34;100960.21;;;24.96;33.04
80699;BME280;70062;51.658;5.658;2023-07-02T10:58:59;100952.07;;;25.25;32.77
80699;BME280;70062;51.658;5.658;2023-07-02T11:01:30;100960.06;;;25.51;32.71
80699;BME280;70062;51.658;5.658;2023-07-02T11:04:02;100959.31;;;25.55;32.85
80699;BME280;70062;51.658;5.658;2023-07-02T11:06:31;100963.17;;;25.55;32.87
80699;BME280;70062;51.658;5.658;2023-07-02T11:09:00;100959.88;;;25.52;32.73
80699;BME280;70062;51.658;5.658;2023-07-02T11:11:26;100965.39;;;25.46;32.96
80699;BME280;70062;51.658;5.658;2023-07-02T11:13:52;100971.52;;;25.30;32.30
80699;BME280;70062;51.658;5.658;2023-07-02T11:16:26;100958.12;;;25.35;32.82
80699;BME280;70062;51.658;5.658;2023-07-02T11:18:53;100955.92;;;25.25;32.56
80699;BME280;70062;51.658;5.658;2023-07-02T11:21:21;100958.46;;;24.94;33.30
80699;BME280;70062;51.658;5.658;2023-07-02T11:23:46;100963.23;;;24.68;33.49
80699;BME280;70062;51.658;5.658;2023-07-02T11:26:12;100964.98;;;24.42;33.48
80699;BME280;70062;51.658;5.658;2023-07-02T11:28:49;100974.67;;;24.33;34.29
80699;BME280;70062;51.658;5.658;2023-07-02T11:31:25;100975.67;;;24.43;33.97
80699;BME280;70062;51.658;5.658;2023-07-02T11:33:56;100973.21;;;24.44;34.17
80699;BME280;70062;51.658;5.658;2023-07-02T11:36:24;100973.50;;;24.79;34.39
80699;BME280;70062;51.658;5.658;2023-07-02T11:38:50;100973.87;;;25.23;34.02
80699;BME280;70062;51.658;5.658;2023-07-02T11:41:17;100971.09;;;25.55;33.24
80699;BME280;70062;51.658;5.658;2023-07-02T11:43:43;100966.20;;;25.71;32.85
80699;BME280;70062;51.658;5.658;2023-07-02T11:46:11;100963.48;;;25.78;33.09
80699;BME280;70062;51.658;5.658;2023-07-02T11:48:36;100961.70;;;25.80;32.47
80699;BME280;70062;51.658;5.658;2023-07-02T11:51:02;100967.76;;;25.55;32.29
80699;BME280;70062;51.658;5.658;2023-07-02T11:53:27;100961.99;;;25.15;32.72
80699;BME280;70062;51.658;5.658;2023-07-02T11:55:53;100965.02;;;24.87;32.77
80699;BME280;70062;51.658;5.658;2023-07-02T11:58:18;100967.77;;;24.71;33.25
80699;BME280;70062;51.658;5.658;2023-07-02T12:00:43;100958.48;;;24.91;32.94
80699;BME280;70062;51.658;5.658;2023-07-02T12:03:09;100959.38;;;24.89;33.44
80699;BME280;70062;51.658;5.658;2023-07-02T12:05:35;100956.23;;;24.88;33.87
80699;BME280;70062;51.658;5.658;2023-07-02T12:08:02;100960.77;;;24.67;33.75
80699;BME280;70062;51.658;5.658;2023-07-02T12:10:27;100964.25;;;24.45;34.18
80699;BME280;70062;51.658;5.658;2023-07-02T12:12:53;100966.79;;;24.61;34.78
80699;BME280;70062;51.658;5.658;2023-07-02T12:15:18;100964.52;;;25.07;34.63
80699;BME280;70062;51.658;5.658;2023-07-02T12:17:44;100966.60;;;25.81;33.65
80699;BME280;70062;51.658;5.658;2023-07-02T12:20:09;100960.31;;;26.60;32.02
80699;BME280;70062;51.658;5.658;2023-07-02T12:22:35;100965.18;;;27.20;29.73
80699;BME280;70062;51.658;5.658;2023-07-02T12:25:00;100959.58;;;28.26;28.36
80699;BME280;70062;51.658;5.658;2023-07-02T12:27:26;100958.73;;;29.87;26.88
80699;BME280;70062;51.658;5.658;2023-07-02T12:29:52;100952.77;;;31.47;24.84
80699;BME280;70062;51.658;5.658;2023-07-02T12:32:18;100952.36;;;32.21;24.12
80699;BME280;70062;51.658;5.658;2023-07-02T12:34:43;100953.35;;;31.66;24.01
80699;BME280;70062;51.658;5.658;2023-07-02T12:37:09;100957.64;;;30.76;24.81
80699;BME280;70062;51.658;5.658;2023-07-02T12:39:34;100965.92;;;30.09;25.35
80699;BME280;70062;51.658;5.658;2023-07-02T12:42:00;100964.40;;;29.63;25.65
80699;BME280;70062;51.658;5.658;2023-07-02T12:44:34;100968.03;;;30.10;25.57
80699;BME280;70062;51.658;5.658;2023-07-02T12:46:59;100966.40;;;29.67;25.32
80699;BME280;70062;51.658;5.658;2023-07-02T12:49:25;100969.67;;;29.10;25.06
80699;BME280;70062;51.658;5.658;2023-07-02T12:51:52;100969.16;;;29.99;23.92